sensor_id;sensor_type;location;lat;lon;timestamp;P1;durP1;ratioP1;P2;durP2;ratioP2
31182;SDS011;17813;0.000;0.000;2023-07-22T00:02:03;8.70;;;3.20;;
31182;SDS011;17813;0.000;0.000;2023-07-22T00:04:31;6.30;;;3.07;;
31182;SDS011;17813;0.000;0.000;2023-07-22T00:07:00;4.57;;;3.37;;
31182;SDS011;17813;0.000;0.000;2023-07-22T00:09:27;5.73;;;3.00;;
31182;SDS011;17813;0.000;0.000;2023-07-22T00:11:54;10.43;;;3.20;;
31182;SDS011;17813;0.000;0.000;2023-07-22T00:14:21;8.53;;;3.40;;
31182;SDS011;17813;0.000;0.000;2023-07-22T00:16:51;6.30;;;3.03;;
31182;SDS011;17813;0.000;0.000;2023-07-22T00:19:22;4.93;;;3.17;;
31182;SDS011;17813;0.000;0.000;2023-07-22T00:21:49;5.70;;;3.40;;
31182;SDS011;17813;0.000;0.000;2023-07-22T00:24:17;6.93;;;3.20;;
31182;SDS011;17813;0.000;0.000;2023-07-22T00:26:46;9.23;;;3.40;;
31182;SDS011;17813;0.000;0.000;2023-07-22T00:29:15;9.47;;;3.50;;
31182;SDS011;17813;0.000;0.000;2023-07-22T00:31:42;5.70;;;3.53;;
31182;SDS011;17813;0.000;0.000;2023-07-22T00:34:09;6.73;;;3.50;;
31182;SDS011;17813;0.000;0.000;2023-07-22T00:36:37;10.13;;;3.60;;
31182;SDS011;17813;0.000;0.000;2023-07-22T00:39:04;9.07;;;3.43;;
31182;SDS011;17813;0.000;0.000;2023-07-22T00:41:33;5.30;;;3.50;;
31182;SDS011;17813;0.000;0.000;2023-07-22T00:44:01;9.37;;;3.50;;
31182;SDS011;17813;0.000;0.000;2023-07-22T00:46:30;4.90;;;3.43;;
31182;SDS011;17813;0.000;0.000;2023-07-22T00:48:57;6.83;;;3.50;;
31182;SDS011;17813;0.000;0.000;2023-07-22T00:51:25;8.13;;;3.33;;
31182;SDS011;17813;0.000;0.000;2023-07-22T00:53:52;7.13;;;3.60;;
31182;SDS011;17813;0.000;0.000;2023-07-22T00:56:21;4.87;;;3.37;;
31182;SDS011;17813;0.000;0.000;2023-07-22T00:58:51;7.67;;;3.50;;
31182;SDS011;17813;0.000;0.000;2023-07-22T01:01:18;6.30;;;3.27;;
31182;SDS011;17813;0.000;0.000;2023-07-22T01:03:46;8.97;;;3.60;;
31182;SDS011;17813;0.000;0.000;2023-07-22T01:06:14;4.17;;;3.27;;
31182;SDS011;17813;0.000;0.000;2023-07-22T01:08:57;7.17;;;3.43;;
31182;SDS011;17813;0.000;0.000;2023-07-22T01:11:26;7.73;;;3.37;;
31182;SDS011;17813;0.000;0.000;2023-07-22T01:13:53;5.80;;;3.70;;
31182;SDS011;17813;0.000;0.000;2023-07-22T01:16:24;7.43;;;3.77;;
31182;SDS011;17813;0.000;0.000;2023-07-22T01:18:55;9.43;;;3.63;;
31182;SDS011;17813;0.000;0.000;2023-07-22T01:21:25;10.10;;;3.87;;
31182;SDS011;17813;0.000;0.000;2023-07-22T01:23:56;11.50;;;3.80;;
31182;SDS011;17813;0.000;0.000;2023-07-22T01:26:24;9.93;;;3.87;;
31182;SDS011;17813;0.000;0.000;2023-07-22T01:29:01;8.13;;;3.23;;
31182;SDS011;17813;0.000;0.000;2023-07-22T01:31:29;12.07;;;4.10;;
31182;SDS011;17813;0.000;0.000;2023-07-22T01:33:56;10.57;;;3.93;;
31182;SDS011;17813;0.000;0.000;2023-07-22T01:36:24;10.67;;;4.30;;
31182;SDS011;17813;0.000;0.000;2023-07-22T01:38:53;7.77;;;4.00;;
31182;SDS011;17813;0.000;0.000;2023-07-22T01:41:20;7.87;;;4.00;;
31182;SDS011;17813;0.000;0.000;2023-07-22T01:43:47;5.83;;;4.00;;
31182;SDS011;17813;0.000;0.000;2023-07-22T01:46:14;9.67;;;4.33;;
31182;SDS011;17813;0.000;0.000;2023-07-22T01:48:42;8.70;;;3.90;;
31182;SDS011;17813;0.000;0.000;2023-07-22T01:51:09;9.73;;;4.00;;
31182;SDS011;17813;0.000;0.000;2023-07-22T01:53:39;10.13;;;4.27;;
31182;SDS011;17813;0.000;0.000;2023-07-22T01:56:10;9.10;;;4.27;;
31182;SDS011;17813;0.000;0.000;2023-07-22T01:58:37;8.53;;;4.57;;
31182;SDS011;17813;0.000;0.000;2023-07-22T02:01:07;7.27;;;3.97;;
31182;SDS011;17813;0.000;0.000;2023-07-22T02:03:37;9.57;;;4.40;;
31182;SDS011;17813;0.000;0.000;2023-07-22T02:06:07;10.43;;;4.60;;
31182;SDS011;17813;0.000;0.000;2023-07-22T02:08:33;11.27;;;4.50;;
31182;SDS011;17813;0.000;0.000;2023-07-22T02:11:02;7.33;;;4.17;;
31182;SDS011;17813;0.000;0.000;2023-07-22T02:13:31;10.03;;;4.30;;
31182;SDS011;17813;0.000;0.000;2023-07-22T02:15:59;8.20;;;3.90;;
31182;SDS011;17813;0.000;0.000;2023-07-22T02:18:27;8.53;;;4.67;;
31182;SDS011;17813;0.000;0.000;2023-07-22T02:20:54;7.63;;;4.27;;
31182;SDS011;17813;0.000;0.000;2023-07-22T02:23:22;8.33;;;4.17;;
31182;SDS011;17813;0.000;0.000;2023-07-22T02:25:50;12.40;;;4.83;;
31182;SDS011;17813;0.000;0.000;2023-07-22T02:28:18;10.40;;;4.57;;
31182;SDS011;17813;0.000;0.000;2023-07-22T02:30:47;9.57;;;4.63;;
31182;SDS011;17813;0.000;0.000;2023-07-22T02:33:15;10.60;;;4.53;;
31182;SDS011;17813;0.000;0.000;2023-07-22T02:35:42;7.20;;;4.23;;
31182;SDS011;17813;0.000;0.000;2023-07-22T02:38:10;8.07;;;4.30;;
31182;SDS011;17813;0.000;0.000;2023-07-22T02:40:37;8.37;;;3.70;;
31182;SDS011;17813;0.000;0.000;2023-07-22T02:43:08;9.43;;;4.30;;
31182;SDS011;17813;0.000;0.000;2023-07-22T02:45:36;7.37;;;4.50;;
31182;SDS011;17813;0.000;0.000;2023-07-22T02:48:06;5.73;;;4.30;;
31182;SDS011;17813;0.000;0.000;2023-07-22T02:50:33;5.63;;;4.10;;
31182;SDS011;17813;0.000;0.000;2023-07-22T02:53:00;8.40;;;4.23;;
31182;SDS011;17813;0.000;0.000;2023-07-22T02:55:27;8.47;;;4.30;;
31182;SDS011;17813;0.000;0.000;2023-07-22T02:57:54;6.40;;;4.13;;
31182;SDS011;17813;0.000;0.000;2023-07-22T03:00:22;9.30;;;4.90;;
31182;SDS011;17813;0.000;0.000;2023-07-22T03:02:50;8.03;;;4.57;;
31182;SDS011;17813;0.000;0.000;2023-07-22T03:05:29;7.33;;;4.07;;
31182;SDS011;17813;0.000;0.000;2023-07-22T03:07:57;8.83;;;4.37;;
31182;SDS011;17813;0.000;0.000;2023-07-22T03:10:25;5.90;;;4.23;;
31182;SDS011;17813;0.000;0.000;2023-07-22T03:12:53;7.63;;;4.67;;
31182;SDS011;17813;0.000;0.000;2023-07-22T03:15:22;7.93;;;4.17;;
31182;SDS011;17813;0.000;0.000;2023-07-22T03:17:51;7.83;;;4.00;;
31182;SDS011;17813;0.000;0.000;2023-07-22T03:20:19;7.87;;;4.03;;
31182;SDS011;17813;0.000;0.000;2023-07-22T03:22:48;9.07;;;4.70;;
31182;SDS011;17813;0.000;0.000;2023-07-22T03:25:19;9.50;;;4.07;;
31182;SDS011;17813;0.000;0.000;2023-07-22T03:27:46;9.80;;;4.40;;
31182;SDS011;17813;0.000;0.000;2023-07-22T03:30:13;8.10;;;4.40;;
31182;SDS011;17813;0.000;0.000;2023-07-22T03:32:44;7.83;;;4.43;;
31182;SDS011;17813;0.000;0.000;2023-07-22T03:35:13;14.90;;;4.73;;
31182;SDS011;17813;0.000;0.000;2023-07-22T03:37:40;11.83;;;4.90;;
31182;SDS011;17813;0.000;0.000;2023-07-22T03:40:07;10.53;;;4.40;;
31182;SDS011;17813;0.000;0.000;2023-07-22T03:42:40;7.43;;;5.03;;
31182;SDS011;17813;0.000;0.000;2023-07-22T03:45:09;10.03;;;4.60;;
31182;SDS011;17813;0.000;0.000;2023-07-22T03:47:38;6.40;;;3.93;;
31182;SDS011;17813;0.000;0.000;2023-07-22T03:50:09;10.00;;;4.50;;
31182;SDS011;17813;0.000;0.000;2023-07-22T03:52:36;10.80;;;4.30;;
31182;SDS011;17813;0.000;0.000;2023-07-22T03:55:03;7.07;;;4.10;;
31182;SDS011;17813;0.000;0.000;2023-07-22T03:57:31;9.07;;;4.10;;
31182;SDS011;17813;0.000;0.000;2023-07-22T03:59:58;9.57;;;4.00;;
31182;SDS011;17813;0.000;0.000;2023-07-22T04:02:25;8.37;;;3.90;;
31182;SDS011;17813;0.000;0.000;2023-07-22T04:04:54;10.87;;;4.30;;
31182;SDS011;17813;0.000;0.000;2023-07-22T04:07:21;9.43;;;4.40;;
31182;SDS011;17813;0.000;0.000;2023-07-22T04:09:48;6.43;;;4.20;;
31182;SDS011;17813;0.000;0.000;2023-07-22T04:12:16;7.97;;;4.37;;
31182;SDS011;17813;0.000;0.000;2023-07-22T04:14:43;6.30;;;4.23;;
31182;SDS011;17813;0.000;0.000;2023-07-22T04:17:10;7.53;;;4.00;;
31182;SDS011;17813;0.000;0.000;2023-07-22T04:19:37;4.97;;;3.90;;
31182;SDS011;17813;0.000;0.000;2023-07-22T04:22:04;7.43;;;4.53;;
31182;SDS011;17813;0.000;0.000;2023-07-22T04:24:32;6.37;;;4.50;;
31182;SDS011;17813;0.000;0.000;2023-07-22T04:27:02;6.93;;;4.70;;
31182;SDS011;17813;0.000;0.000;2023-07-22T04:29:29;7.30;;;4.90;;
31182;SDS011;17813;0.000;0.000;2023-07-22T04:31:59;10.20;;;4.60;;
31182;SDS011;17813;0.000;0.000;2023-07-22T04:34:30;6.23;;;4.30;;
31182;SDS011;17813;0.000;0.000;2023-07-22T04:36:57;7.53;;;3.70;;
31182;SDS011;17813;0.000;0.000;2023-07-22T04:39:25;6.83;;;4.27;;
31182;SDS011;17813;0.000;0.000;2023-07-22T04:42:09;8.63;;;4.07;;
31182;SDS011;17813;0.000;0.000;2023-07-22T04:44:36;5.43;;;3.73;;
31182;SDS011;17813;0.000;0.000;2023-07-22T04:47:04;4.90;;;3.83;;
31182;SDS011;17813;0.000;0.000;2023-07-22T04:49:31;9.97;;;3.67;;
31182;SDS011;17813;0.000;0.000;2023-07-22T04:51:57;6.20;;;3.87;;
31182;SDS011;17813;0.000;0.000;2023-07-22T04:54:24;4.40;;;3.40;;
31182;SDS011;17813;0.000;0.000;2023-07-22T04:56:53;6.17;;;3.97;;
31182;SDS011;17813;0.000;0.000;2023-07-22T04:59:20;5.20;;;3.37;;
31182;SDS011;17813;0.000;0.000;2023-07-22T05:01:51;7.53;;;3.57;;
31182;SDS011;17813;0.000;0.000;2023-07-22T05:04:21;7.15;;;3.40;;
31182;SDS011;17813;0.000;0.000;2023-07-22T05:06:49;3.83;;;3.38;;
31182;SDS011;17813;0.000;0.000;2023-07-22T05:09:16;6.25;;;3.33;;
31182;SDS011;17813;0.000;0.000;2023-07-22T05:11:43;8.20;;;3.83;;
31182;SDS011;17813;0.000;0.000;2023-07-22T05:14:10;5.20;;;3.30;;
31182;SDS011;17813;0.000;0.000;2023-07-22T05:16:43;7.00;;;3.10;;
31182;SDS011;17813;0.000;0.000;2023-07-22T05:19:11;8.73;;;3.28;;
31182;SDS011;17813;0.000;0.000;2023-07-22T05:21:41;3.90;;;2.83;;
31182;SDS011;17813;0.000;0.000;2023-07-22T05:24:08;5.13;;;3.20;;
31182;SDS011;17813;0.000;0.000;2023-07-22T05:26:36;7.93;;;2.92;;
31182;SDS011;17813;0.000;0.000;2023-07-22T05:29:03;4.57;;;3.10;;
31182;SDS011;17813;0.000;0.000;2023-07-22T05:31:32;3.88;;;2.88;;
31182;SDS011;17813;0.000;0.000;2023-07-22T05:34:00;5.15;;;3.20;;
31182;SDS011;17813;0.000;0.000;2023-07-22T05:36:26;3.22;;;2.92;;
31182;SDS011;17813;0.000;0.000;2023-07-22T05:38:57;3.42;;;3.13;;
31182;SDS011;17813;0.000;0.000;2023-07-22T05:41:24;4.35;;;3.25;;
31182;SDS011;17813;0.000;0.000;2023-07-22T05:43:51;3.67;;;3.38;;
31182;SDS011;17813;0.000;0.000;2023-07-22T05:46:18;3.45;;;3.15;;
31182;SDS011;17813;0.000;0.000;2023-07-22T05:48:45;3.58;;;3.28;;
31182;SDS011;17813;0.000;0.000;2023-07-22T05:51:12;9.30;;;3.55;;
31182;SDS011;17813;0.000;0.000;2023-07-22T05:53:40;3.53;;;3.22;;
31182;SDS011;17813;0.000;0.000;2023-07-22T05:56:07;4.07;;;3.72;;
31182;SDS011;17813;0.000;0.000;2023-07-22T05:58:34;3.88;;;3.58;;
31182;SDS011;17813;0.000;0.000;2023-07-22T06:01:01;4.57;;;4.03;;
31182;SDS011;17813;0.000;0.000;2023-07-22T06:03:29;3.85;;;3.53;;
31182;SDS011;17813;0.000;0.000;2023-07-22T06:05:56;4.15;;;3.72;;
31182;SDS011;17813;0.000;0.000;2023-07-22T06:08:23;4.82;;;4.20;;
31182;SDS011;17813;0.000;0.000;2023-07-22T06:10:51;5.75;;;4.22;;
31182;SDS011;17813;0.000;0.000;2023-07-22T06:13:27;4.70;;;4.30;;
31182;SDS011;17813;0.000;0.000;2023-07-22T06:15:57;5.88;;;4.47;;
31182;SDS011;17813;0.000;0.000;2023-07-22T06:18:26;4.50;;;4.10;;
31182;SDS011;17813;0.000;0.000;2023-07-22T06:20:53;5.15;;;4.70;;
31182;SDS011;17813;0.000;0.000;2023-07-22T06:23:21;5.57;;;5.07;;
31182;SDS011;17813;0.000;0.000;2023-07-22T06:25:53;5.03;;;4.53;;
31182;SDS011;17813;0.000;0.000;2023-07-22T06:28:20;5.72;;;5.22;;
31182;SDS011;17813;0.000;0.000;2023-07-22T06:30:48;6.28;;;4.82;;
31182;SDS011;17813;0.000;0.000;2023-07-22T06:33:15;5.00;;;4.47;;
31182;SDS011;17813;0.000;0.000;2023-07-22T06:35:42;5.32;;;4.82;;
31182;SDS011;17813;0.000;0.000;2023-07-22T06:38:09;5.50;;;4.55;;
31182;SDS011;17813;0.000;0.000;2023-07-22T06:40:36;4.55;;;4.22;;
31182;SDS011;17813;0.000;0.000;2023-07-22T06:43:03;4.47;;;4.13;;
31182;SDS011;17813;0.000;0.000;2023-07-22T06:45:32;4.95;;;4.05;;
31182;SDS011;17813;0.000;0.000;2023-07-22T06:48:13;4.65;;;4.20;;
31182;SDS011;17813;0.000;0.000;2023-07-22T06:50:48;4.63;;;4.22;;
31182;SDS011;17813;0.000;0.000;2023-07-22T06:53:17;5.00;;;4.50;;
31182;SDS011;17813;0.000;0.000;2023-07-22T06:55:49;4.55;;;4.15;;
31182;SDS011;17813;0.000;0.000;2023-07-22T06:58:18;4.40;;;3.83;;
31182;SDS011;17813;0.000;0.000;2023-07-22T07:00:55;4.50;;;4.10;;
31182;SDS011;17813;0.000;0.000;2023-07-22T07:03:36;4.07;;;3.67;;
31182;SDS011;17813;0.000;0.000;2023-07-22T07:06:03;3.85;;;3.50;;
31182;SDS011;17813;0.000;0.000;2023-07-22T07:08:30;3.90;;;3.60;;
31182;SDS011;17813;0.000;0.000;2023-07-22T07:10:59;3.75;;;3.17;;
31182;SDS011;17813;0.000;0.000;2023-07-22T07:13:31;3.47;;;3.17;;
31182;SDS011;17813;0.000;0.000;2023-07-22T07:15:58;3.20;;;2.90;;
31182;SDS011;17813;0.000;0.000;2023-07-22T07:18:51;3.83;;;3.05;;
31182;SDS011;17813;0.000;0.000;2023-07-22T07:21:18;3.95;;;3.55;;
31182;SDS011;17813;0.000;0.000;2023-07-22T07:23:45;3.40;;;3.10;;
31182;SDS011;17813;0.000;0.000;2023-07-22T07:26:13;3.38;;;3.08;;
31182;SDS011;17813;0.000;0.000;2023-07-22T07:28:40;7.95;;;3.05;;
31182;SDS011;17813;0.000;0.000;2023-07-22T07:31:08;5.80;;;3.03;;
31182;SDS011;17813;0.000;0.000;2023-07-22T07:33:35;3.05;;;2.83;;
31182;SDS011;17813;0.000;0.000;2023-07-22T07:36:02;3.83;;;2.70;;
31182;SDS011;17813;0.000;0.000;2023-07-22T07:38:33;2.60;;;2.40;;
31182;SDS011;17813;0.000;0.000;2023-07-22T07:41:04;2.55;;;2.35;;
31182;SDS011;17813;0.000;0.000;2023-07-22T07:43:40;2.80;;;2.58;;
31182;SDS011;17813;0.000;0.000;2023-07-22T07:46:17;4.22;;;2.40;;
31182;SDS011;17813;0.000;0.000;2023-07-22T07:48:51;2.95;;;2.50;;
31182;SDS011;17813;0.000;0.000;2023-07-22T07:51:23;2.60;;;2.40;;
31182;SDS011;17813;0.000;0.000;2023-07-22T07:53:52;2.67;;;2.28;;
31182;SDS011;17813;0.000;0.000;2023-07-22T07:56:22;3.63;;;2.35;;
31182;SDS011;17813;0.000;0.000;2023-07-22T07:58:52;3.28;;;2.00;;
31182;SDS011;17813;0.000;0.000;2023-07-22T08:01:21;2.72;;;2.25;;
31182;SDS011;17813;0.000;0.000;2023-07-22T08:03:48;3.13;;;2.30;;
31182;SDS011;17813;0.000;0.000;2023-07-22T08:06:16;2.85;;;2.35;;
31182;SDS011;17813;0.000;0.000;2023-07-22T08:08:43;2.50;;;2.30;;
31182;SDS011;17813;0.000;0.000;2023-07-22T08:11:11;2.25;;;2.08;;
31182;SDS011;17813;0.000;0.000;2023-07-22T08:13:42;2.63;;;2.42;;
31182;SDS011;17813;0.000;0.000;2023-07-22T08:16:10;2.42;;;2.25;;
31182;SDS011;17813;0.000;0.000;2023-07-22T08:18:39;2.65;;;2.45;;
31182;SDS011;17813;0.000;0.000;2023-07-22T08:21:06;2.80;;;2.60;;
31182;SDS011;17813;0.000;0.000;2023-07-22T08:23:36;2.35;;;2.20;;
31182;SDS011;17813;0.000;0.000;2023-07-22T08:26:05;2.50;;;2.30;;
31182;SDS011;17813;0.000;0.000;2023-07-22T08:28:33;2.50;;;2.28;;
31182;SDS011;17813;0.000;0.000;2023-07-22T08:31:06;2.58;;;2.38;;
31182;SDS011;17813;0.000;0.000;2023-07-22T08:33:54;2.60;;;2.40;;
31182;SDS011;17813;0.000;0.000;2023-07-22T08:36:22;2.53;;;2.25;;
31182;SDS011;17813;0.000;0.000;2023-07-22T08:38:51;2.47;;;2.28;;
31182;SDS011;17813;0.000;0.000;2023-07-22T08:41:24;2.35;;;2.15;;
31182;SDS011;17813;0.000;0.000;2023-07-22T08:43:54;2.33;;;2.22;;
31182;SDS011;17813;0.000;0.000;2023-07-22T08:46:24;2.47;;;2.35;;
31182;SDS011;17813;0.000;0.000;2023-07-22T08:49:00;2.70;;;2.50;;
31182;SDS011;17813;0.000;0.000;2023-07-22T08:51:29;3.42;;;3.13;;
31182;SDS011;17813;0.000;0.000;2023-07-22T08:53:58;2.90;;;2.70;;
31182;SDS011;17813;0.000;0.000;2023-07-22T08:56:32;2.53;;;2.33;;
31182;SDS011;17813;0.000;0.000;2023-07-22T08:58:59;2.70;;;2.50;;
31182;SDS011;17813;0.000;0.000;2023-07-22T09:01:27;2.97;;;2.78;;
31182;SDS011;17813;0.000;0.000;2023-07-22T09:03:57;2.65;;;2.45;;
31182;SDS011;17813;0.000;0.000;2023-07-22T09:06:24;2.85;;;2.65;;
31182;SDS011;17813;0.000;0.000;2023-07-22T09:08:51;2.83;;;2.63;;
31182;SDS011;17813;0.000;0.000;2023-07-22T09:11:19;2.78;;;2.58;;
31182;SDS011;17813;0.000;0.000;2023-07-22T09:13:47;3.22;;;2.60;;
31182;SDS011;17813;0.000;0.000;2023-07-22T09:16:15;2.90;;;2.60;;
31182;SDS011;17813;0.000;0.000;2023-07-22T09:18:43;2.80;;;2.60;;
31182;SDS011;17813;0.000;0.000;2023-07-22T09:21:10;2.95;;;2.75;;
31182;SDS011;17813;0.000;0.000;2023-07-22T09:23:38;2.60;;;2.40;;
31182;SDS011;17813;0.000;0.000;2023-07-22T09:26:10;2.83;;;2.63;;
31182;SDS011;17813;0.000;0.000;2023-07-22T09:28:51;2.47;;;2.30;;
31182;SDS011;17813;0.000;0.000;2023-07-22T09:31:24;3.08;;;2.50;;
31182;SDS011;17813;0.000;0.000;2023-07-22T09:33:56;2.60;;;2.40;;
31182;SDS011;17813;0.000;0.000;2023-07-22T09:36:55;2.83;;;2.58;;
31182;SDS011;17813;0.000;0.000;2023-07-22T09:39:29;2.45;;;2.33;;
31182;SDS011;17813;0.000;0.000;2023-07-22T09:41:58;2.60;;;2.40;;
31182;SDS011;17813;0.000;0.000;2023-07-22T09:44:54;3.35;;;2.90;;
31182;SDS011;17813;0.000;0.000;2023-07-22T09:47:23;2.65;;;2.45;;
31182;SDS011;17813;0.000;0.000;2023-07-22T09:49:51;3.10;;;2.72;;
31182;SDS011;17813;0.000;0.000;2023-07-22T09:52:17;2.75;;;2.50;;
31182;SDS011;17813;0.000;0.000;2023-07-22T09:54:48;2.85;;;2.65;;
31182;SDS011;17813;0.000;0.000;2023-07-22T09:57:15;2.83;;;2.60;;
31182;SDS011;17813;0.000;0.000;2023-07-22T09:59:45;2.50;;;2.30;;
31182;SDS011;17813;0.000;0.000;2023-07-22T10:02:20;2.70;;;2.42;;
31182;SDS011;17813;0.000;0.000;2023-07-22T10:04:52;2.50;;;2.30;;
31182;SDS011;17813;0.000;0.000;2023-07-22T10:07:24;2.67;;;2.47;;
31182;SDS011;17813;0.000;0.000;2023-07-22T10:09:53;2.80;;;2.60;;
31182;SDS011;17813;0.000;0.000;2023-07-22T10:12:21;4.05;;;2.85;;
31182;SDS011;17813;0.000;0.000;2023-07-22T10:14:49;2.70;;;2.50;;
31182;SDS011;17813;0.000;0.000;2023-07-22T10:17:21;2.63;;;2.42;;
31182;SDS011;17813;0.000;0.000;2023-07-22T10:19:49;3.00;;;2.80;;
31182;SDS011;17813;0.000;0.000;2023-07-22T10:22:19;3.35;;;2.67;;
31182;SDS011;17813;0.000;0.000;2023-07-22T10:24:47;2.92;;;2.72;;
31182;SDS011;17813;0.000;0.000;2023-07-22T10:27:18;2.90;;;2.70;;
31182;SDS011;17813;0.000;0.000;2023-07-22T10:29:45;3.08;;;2.88;;
31182;SDS011;17813;0.000;0.000;2023-07-22T10:32:15;2.80;;;2.60;;
31182;SDS011;17813;0.000;0.000;2023-07-22T10:34:48;3.50;;;2.97;;
31182;SDS011;17813;0.000;0.000;2023-07-22T10:37:19;2.72;;;2.53;;
31182;SDS011;17813;0.000;0.000;2023-07-22T10:39:58;2.90;;;2.70;;
31182;SDS011;17813;0.000;0.000;2023-07-22T10:42:27;3.08;;;2.75;;
31182;SDS011;17813;0.000;0.000;2023-07-22T10:44:59;2.80;;;2.60;;
31182;SDS011;17813;0.000;0.000;2023-07-22T10:47:34;3.13;;;2.53;;
31182;SDS011;17813;0.000;0.000;2023-07-22T10:50:06;3.10;;;2.80;;
31182;SDS011;17813;0.000;0.000;2023-07-22T10:52:42;3.10;;;2.80;;
31182;SDS011;17813;0.000;0.000;2023-07-22T10:55:14;2.80;;;2.60;;
31182;SDS011;17813;0.000;0.000;2023-07-22T10:57:49;3.10;;;2.55;;
31182;SDS011;17813;0.000;0.000;2023-07-22T11:00:24;2.92;;;2.72;;
31182;SDS011;17813;0.000;0.000;2023-07-22T11:03:09;2.70;;;2.50;;
31182;SDS011;17813;0.000;0.000;2023-07-22T11:05:52;2.78;;;2.58;;
31182;SDS011;17813;0.000;0.000;2023-07-22T11:08:39;2.95;;;2.75;;
31182;SDS011;17813;0.000;0.000;2023-07-22T11:11:07;3.28;;;2.60;;
31182;SDS011;17813;0.000;0.000;2023-07-22T11:13:37;3.30;;;3.00;;
31182;SDS011;17813;0.000;0.000;2023-07-22T11:16:11;3.25;;;2.95;;
31182;SDS011;17813;0.000;0.000;2023-07-22T11:18:42;3.13;;;2.90;;
31182;SDS011;17813;0.000;0.000;2023-07-22T11:21:10;3.30;;;3.00;;
31182;SDS011;17813;0.000;0.000;2023-07-22T11:23:39;3.30;;;3.00;;
31182;SDS011;17813;0.000;0.000;2023-07-22T11:26:09;2.88;;;2.60;;
31182;SDS011;17813;0.000;0.000;2023-07-22T11:28:38;3.20;;;2.58;;
31182;SDS011;17813;0.000;0.000;2023-07-22T11:31:08;3.10;;;2.80;;
31182;SDS011;17813;0.000;0.000;2023-07-22T11:33:39;2.92;;;2.72;;
31182;SDS011;17813;0.000;0.000;2023-07-22T11:36:12;3.00;;;2.80;;
31182;SDS011;17813;0.000;0.000;2023-07-22T11:38:40;3.15;;;2.78;;
31182;SDS011;17813;0.000;0.000;2023-07-22T11:41:09;3.28;;;2.90;;
31182;SDS011;17813;0.000;0.000;2023-07-22T11:43:36;2.88;;;2.67;;
31182;SDS011;17813;0.000;0.000;2023-07-22T11:46:05;2.80;;;2.60;;
31182;SDS011;17813;0.000;0.000;2023-07-22T11:48:39;3.83;;;2.70;;
31182;SDS011;17813;0.000;0.000;2023-07-22T11:51:17;3.00;;;2.80;;
31182;SDS011;17813;0.000;0.000;2023-07-22T11:53:54;3.35;;;3.05;;
31182;SDS011;17813;0.000;0.000;2023-07-22T11:56:38;3.30;;;3.00;;
31182;SDS011;17813;0.000;0.000;2023-07-22T11:59:10;2.97;;;2.67;;
31182;SDS011;17813;0.000;0.000;2023-07-22T12:01:39;3.03;;;2.83;;
31182;SDS011;17813;0.000;0.000;2023-07-22T12:04:11;2.85;;;2.65;;
31182;SDS011;17813;0.000;0.000;2023-07-22T12:06:41;3.10;;;2.90;;
31182;SDS011;17813;0.000;0.000;2023-07-22T12:09:09;3.40;;;3.10;;
31182;SDS011;17813;0.000;0.000;2023-07-22T12:11:37;3.08;;;2.83;;
31182;SDS011;17813;0.000;0.000;2023-07-22T12:14:11;3.50;;;3.13;;
31182;SDS011;17813;0.000;0.000;2023-07-22T12:16:40;3.15;;;2.90;;
31182;SDS011;17813;0.000;0.000;2023-07-22T12:19:09;3.40;;;3.10;;
31182;SDS011;17813;0.000;0.000;2023-07-22T12:21:37;2.95;;;2.75;;
31182;SDS011;17813;0.000;0.000;2023-07-22T12:24:05;3.00;;;2.70;;
31182;SDS011;17813;0.000;0.000;2023-07-22T12:26:32;3.05;;;2.85;;
31182;SDS011;17813;0.000;0.000;2023-07-22T12:28:59;3.47;;;2.70;;
31182;SDS011;17813;0.000;0.000;2023-07-22T12:31:35;4.15;;;2.70;;
31182;SDS011;17813;0.000;0.000;2023-07-22T12:34:02;2.97;;;2.67;;
31182;SDS011;17813;0.000;0.000;2023-07-22T12:36:30;3.00;;;2.80;;
31182;SDS011;17813;0.000;0.000;2023-07-22T12:38:57;2.80;;;2.60;;
31182;SDS011;17813;0.000;0.000;2023-07-22T12:41:25;3.00;;;2.80;;
31182;SDS011;17813;0.000;0.000;2023-07-22T12:43:53;2.80;;;2.60;;
31182;SDS011;17813;0.000;0.000;2023-07-22T12:46:21;2.80;;;2.60;;
31182;SDS011;17813;0.000;0.000;2023-07-22T12:48:50;4.30;;;2.88;;
31182;SDS011;17813;0.000;0.000;2023-07-22T12:51:17;3.20;;;2.90;;
31182;SDS011;17813;0.000;0.000;2023-07-22T12:53:45;4.18;;;2.97;;
31182;SDS011;17813;0.000;0.000;2023-07-22T12:56:17;3.13;;;2.70;;
31182;SDS011;17813;0.000;0.000;2023-07-22T12:58:45;2.85;;;2.65;;
31182;SDS011;17813;0.000;0.000;2023-07-22T13:01:13;2.90;;;2.70;;
31182;SDS011;17813;0.000;0.000;2023-07-22T13:03:40;2.90;;;2.70;;
31182;SDS011;17813;0.000;0.000;2023-07-22T13:06:07;2.80;;;2.60;;
31182;SDS011;17813;0.000;0.000;2023-07-22T13:08:34;3.22;;;2.92;;
31182;SDS011;17813;0.000;0.000;2023-07-22T13:11:01;2.92;;;2.72;;
31182;SDS011;17813;0.000;0.000;2023-07-22T13:13:29;3.20;;;2.90;;
31182;SDS011;17813;0.000;0.000;2023-07-22T13:15:59;2.95;;;2.75;;
31182;SDS011;17813;0.000;0.000;2023-07-22T13:18:25;2.80;;;2.60;;
31182;SDS011;17813;0.000;0.000;2023-07-22T13:20:54;3.63;;;2.90;;
31182;SDS011;17813;0.000;0.000;2023-07-22T13:23:21;4.90;;;3.00;;
31182;SDS011;17813;0.000;0.000;2023-07-22T13:25:48;3.30;;;3.00;;
31182;SDS011;17813;0.000;0.000;2023-07-22T13:28:16;2.88;;;2.67;;
31182;SDS011;17813;0.000;0.000;2023-07-22T13:30:44;3.65;;;3.10;;
31182;SDS011;17813;0.000;0.000;2023-07-22T13:33:11;3.05;;;2.85;;
31182;SDS011;17813;0.000;0.000;2023-07-22T13:35:47;3.42;;;3.13;;
31182;SDS011;17813;0.000;0.000;2023-07-22T13:38:20;4.78;;;3.00;;
31182;SDS011;17813;0.000;0.000;2023-07-22T13:40:48;3.58;;;3.28;;
31182;SDS011;17813;0.000;0.000;2023-07-22T13:43:16;3.70;;;3.10;;
31182;SDS011;17813;0.000;0.000;2023-07-22T13:45:44;3.40;;;3.10;;
31182;SDS011;17813;0.000;0.000;2023-07-22T13:48:11;3.30;;;3.00;;
31182;SDS011;17813;0.000;0.000;2023-07-22T13:50:38;3.03;;;2.83;;
31182;SDS011;17813;0.000;0.000;2023-07-22T13:53:07;3.22;;;2.92;;
31182;SDS011;17813;0.000;0.000;2023-07-22T13:55:35;4.22;;;3.00;;
31182;SDS011;17813;0.000;0.000;2023-07-22T13:58:02;3.35;;;3.05;;
31182;SDS011;17813;0.000;0.000;2023-07-22T14:00:30;3.35;;;2.95;;
31182;SDS011;17813;0.000;0.000;2023-07-22T14:02:58;3.40;;;3.10;;
31182;SDS011;17813;0.000;0.000;2023-07-22T14:05:30;3.28;;;2.97;;
31182;SDS011;17813;0.000;0.000;2023-07-22T14:08:00;3.55;;;3.25;;
31182;SDS011;17813;0.000;0.000;2023-07-22T14:10:27;3.70;;;3.40;;
31182;SDS011;17813;0.000;0.000;2023-07-22T14:12:55;3.25;;;2.95;;
31182;SDS011;17813;0.000;0.000;2023-07-22T14:15:23;3.40;;;3.10;;
31182;SDS011;17813;0.000;0.000;2023-07-22T14:17:50;3.08;;;2.80;;
31182;SDS011;17813;0.000;0.000;2023-07-22T14:20:17;3.10;;;2.90;;
31182;SDS011;17813;0.000;0.000;2023-07-22T14:22:48;3.13;;;2.83;;
31182;SDS011;17813;0.000;0.000;2023-07-22T14:25:16;4.50;;;3.08;;
31182;SDS011;17813;0.000;0.000;2023-07-22T14:27:44;4.07;;;3.08;;
31182;SDS011;17813;0.000;0.000;2023-07-22T14:30:11;2.80;;;2.60;;
31182;SDS011;17813;0.000;0.000;2023-07-22T14:32:38;3.58;;;3.28;;
31182;SDS011;17813;0.000;0.000;2023-07-22T14:35:05;3.40;;;2.90;;
31182;SDS011;17813;0.000;0.000;2023-07-22T14:37:33;3.47;;;2.95;;
31182;SDS011;17813;0.000;0.000;2023-07-22T14:40:01;4.22;;;3.17;;
31182;SDS011;17813;0.000;0.000;2023-07-22T14:42:31;3.45;;;3.15;;
31182;SDS011;17813;0.000;0.000;2023-07-22T14:44:58;3.35;;;3.03;;
31182;SDS011;17813;0.000;0.000;2023-07-22T14:47:38;3.47;;;3.03;;
31182;SDS011;17813;0.000;0.000;2023-07-22T14:50:05;3.35;;;3.05;;
31182;SDS011;17813;0.000;0.000;2023-07-22T14:52:35;3.00;;;2.80;;
31182;SDS011;17813;0.000;0.000;2023-07-22T14:55:02;3.88;;;3.13;;
31182;SDS011;17813;0.000;0.000;2023-07-22T14:57:50;3.20;;;2.95;;
31182;SDS011;17813;0.000;0.000;2023-07-22T15:00:19;3.20;;;2.90;;
31182;SDS011;17813;0.000;0.000;2023-07-22T15:02:47;3.33;;;2.83;;
31182;SDS011;17813;0.000;0.000;2023-07-22T15:05:15;3.30;;;3.00;;
31182;SDS011;17813;0.000;0.000;2023-07-22T15:07:42;3.28;;;2.97;;
31182;SDS011;17813;0.000;0.000;2023-07-22T15:10:09;3.13;;;2.92;;
31182;SDS011;17813;0.000;0.000;2023-07-22T15:12:37;3.33;;;3.00;;
31182;SDS011;17813;0.000;0.000;2023-07-22T15:15:05;3.20;;;2.90;;